createdAt,value
2023-10-10T00:00:28.276Z,13.90
2023-10-10T00:02:57.117Z,13.90
2023-10-10T00:05:34.370Z,13.90
2023-10-10T00:08:06.320Z,13.90
2023-10-10T00:10:36.963Z,13.80
2023-10-10T00:13:08.476Z,13.80
2023-10-10T00:15:40.034Z,13.90
2023-10-10T00:18:12.320Z,13.80
2023-10-10T00:20:44.878Z,13.80
2023-10-10T00:23:13.750Z,13.80
2023-10-10T00:25:43.396Z,13.80
2023-10-10T00:28:19.171Z,13.70
2023-10-10T00:30:47.285Z,13.70
2023-10-10T00:33:17.119Z,13.70
2023-10-10T00:35:45.709Z,13.70
2023-10-10T00:38:19.117Z,13.70
2023-10-10T00:40:49.424Z,13.60
2023-10-10T00:43:17.804Z,13.60
2023-10-10T00:45:52.951Z,13.50
2023-10-10T00:48:23.184Z,13.50
2023-10-10T00:50:57.129Z,13.50
2023-10-10T00:53:26.358Z,13.40
2023-10-10T00:55:57.767Z,13.40
2023-10-10T00:58:36.805Z,13.40
2023-10-10T01:01:09.612Z,13.40
2023-10-10T01:03:40.774Z,13.40
2023-10-10T01:06:21.492Z,13.40
2023-10-10T01:08:51.877Z,13.30
2023-10-10T01:11:21.330Z,13.40
2023-10-10T01:13:49.101Z,13.40
2023-10-10T01:16:18.697Z,13.40
2023-10-10T01:18:53.091Z,13.30
2023-10-10T01:21:31.336Z,13.30
2023-10-10T01:24:07.421Z,13.30
2023-10-10T01:26:39.685Z,13.30
2023-10-10T01:29:21.256Z,13.30
2023-10-10T01:31:49.732Z,13.40
2023-10-10T01:34:31.769Z,13.40
2023-10-10T01:37:04.923Z,13.40
2023-10-10T01:39:52.586Z,13.40
2023-10-10T01:42:31.935Z,13.30
2023-10-10T01:45:03.653Z,13.40
2023-10-10T01:47:35.842Z,13.40
2023-10-10T01:50:08.934Z,13.30
2023-10-10T01:52:44.858Z,13.30
2023-10-10T01:55:12.765Z,13.30
2023-10-10T01:57:40.670Z,13.30
2023-10-10T02:00:21.336Z,13.30
2023-10-10T02:02:51.003Z,13.30
2023-10-10T02:05:31.562Z,13.30
2023-10-10T02:08:02.172Z,13.30
2023-10-10T02:10:31.161Z,13.30
2023-10-10T02:13:01.172Z,13.30
2023-10-10T02:15:33.692Z,13.40
2023-10-10T02:18:06.129Z,13.40
2023-10-10T02:20:50.883Z,13.20
2023-10-10T02:23:33.995Z,13.20
2023-10-10T02:26:10.253Z,13.10
2023-10-10T02:28:48.735Z,13.10
2023-10-10T02:31:17.799Z,13.10
2023-10-10T02:33:50.920Z,13.10
2023-10-10T02:36:31.460Z,13.10
2023-10-10T02:39:24.217Z,13.20
2023-10-10T02:41:59.393Z,13.30
2023-10-10T02:44:39.777Z,13.30
2023-10-10T02:47:08.833Z,13.20
2023-10-10T02:49:38.593Z,13.20
2023-10-10T02:52:08.765Z,13.20
2023-10-10T02:54:44.554Z,13.20
2023-10-10T02:57:26.330Z,13.20
2023-10-10T03:00:00.463Z,13.10
2023-10-10T03:02:41.778Z,13.00
2023-10-10T03:05:16.761Z,13.00
2023-10-10T03:07:52.829Z,12.90
2023-10-10T03:10:38.670Z,12.90
2023-10-10T03:13:28.796Z,13.00
2023-10-10T03:16:13.478Z,13.00
2023-10-10T03:18:54.062Z,13.10
2023-10-10T03:21:26.042Z,13.10
2023-10-10T03:23:56.960Z,13.10
2023-10-10T03:26:52.618Z,13.20
2023-10-10T03:29:28.345Z,13.20
2023-10-10T03:32:10.742Z,13.10
2023-10-10T03:34:45.832Z,13.00
2023-10-10T03:37:27.944Z,13.00
2023-10-10T03:39:58.706Z,12.90
2023-10-10T03:42:41.856Z,12.70
2023-10-10T03:45:24.595Z,12.80
2023-10-10T03:48:06.330Z,12.80
2023-10-10T03:50:48.154Z,12.70
2023-10-10T03:53:29.908Z,12.70
2023-10-10T03:56:11.632Z,12.70
2023-10-10T03:58:54.685Z,12.70
2023-10-10T04:01:36.529Z,12.60
2023-10-10T04:04:18.474Z,12.60
2023-10-10T04:07:00.237Z,12.60
2023-10-10T04:09:41.978Z,12.50
2023-10-10T04:12:23.704Z,12.40
2023-10-10T04:15:06.810Z,12.50
2023-10-10T04:17:48.721Z,12.40
2023-10-10T04:20:30.546Z,12.50
2023-10-10T04:23:12.374Z,12.50
2023-10-10T04:25:54.168Z,12.60
2023-10-10T04:28:35.930Z,12.70
2023-10-10T04:31:21.930Z,12.80
2023-10-10T04:34:03.857Z,12.80
2023-10-10T04:36:45.580Z,12.80
2023-10-10T04:39:27.315Z,12.80
2023-10-10T04:42:09.123Z,12.80
2023-10-10T04:44:50.888Z,12.70
2023-10-10T04:47:34.134Z,12.60
2023-10-10T04:50:15.922Z,12.60
2023-10-10T04:52:57.629Z,12.50
2023-10-10T04:55:39.324Z,12.60
2023-10-10T04:58:21.036Z,12.60
2023-10-10T05:01:02.804Z,12.40
2023-10-10T05:03:45.934Z,12.30
2023-10-10T05:06:27.748Z,12.20
2023-10-10T05:09:09.847Z,12.20
2023-10-10T05:11:52.029Z,12.20
2023-10-10T05:14:33.979Z,12.20
2023-10-10T05:17:16.053Z,12.20
2023-10-10T05:19:59.129Z,12.00
2023-10-10T05:22:41.195Z,11.90
2023-10-10T05:25:14.078Z,11.90
2023-10-10T05:27:42.779Z,11.90
2023-10-10T05:30:24.078Z,11.80
2023-10-10T05:33:02.106Z,11.90
2023-10-10T05:35:34.045Z,11.90
2023-10-10T05:38:02.901Z,12.00
2023-10-10T05:40:34.314Z,12.00
2023-10-10T05:43:02.284Z,12.00
2023-10-10T05:45:30.218Z,12.00
2023-10-10T05:47:58.176Z,12.10
2023-10-10T05:50:26.133Z,12.10
2023-10-10T05:52:55.725Z,12.20
2023-10-10T05:55:24.559Z,12.20
2023-10-10T05:57:53.540Z,12.20
2023-10-10T06:00:25.927Z,12.30
2023-10-10T06:02:53.927Z,12.20
2023-10-10T06:05:21.981Z,12.30
2023-10-10T06:07:50.659Z,12.40
2023-10-10T06:10:19.836Z,12.50
2023-10-10T06:12:49.066Z,12.60
2023-10-10T06:15:18.973Z,12.70
2023-10-10T06:17:47.008Z,12.80
2023-10-10T06:20:17.336Z,12.90
2023-10-10T06:22:46.049Z,13.00
2023-10-10T06:25:18.453Z,13.00
2023-10-10T06:27:55.068Z,13.10
2023-10-10T06:30:25.514Z,13.20
2023-10-10T06:32:59.699Z,13.20
2023-10-10T06:35:29.368Z,13.40
2023-10-10T06:37:59.295Z,13.60
2023-10-10T06:40:26.544Z,13.70
2023-10-10T06:42:57.442Z,13.70
2023-10-10T06:45:27.656Z,13.80
2023-10-10T06:47:55.850Z,13.80
2023-10-10T06:50:23.732Z,14.00
2023-10-10T06:52:53.442Z,14.20
2023-10-10T06:55:24.546Z,14.40
2023-10-10T06:57:59.005Z,14.50
2023-10-10T07:00:33.427Z,14.70
2023-10-10T07:03:01.561Z,14.80
2023-10-10T07:05:34.397Z,14.90
2023-10-10T07:08:13.784Z,15.10
2023-10-10T07:10:43.867Z,15.20
2023-10-10T07:13:14.742Z,15.60
2023-10-10T07:15:52.007Z,16.10
2023-10-10T07:18:24.331Z,16.30
2023-10-10T07:21:05.375Z,16.90
2023-10-10T07:23:54.257Z,17.60
2023-10-10T07:26:22.441Z,18.40
2023-10-10T07:28:54.124Z,19.20
2023-10-10T07:31:25.898Z,19.60
2023-10-10T07:34:04.486Z,20.00
2023-10-10T07:36:32.929Z,20.30
2023-10-10T07:39:14.675Z,20.90
2023-10-10T07:41:46.246Z,21.40
2023-10-10T07:44:17.698Z,22.00
2023-10-10T07:47:10.392Z,22.70
2023-10-10T07:49:41.023Z,23.40
2023-10-10T07:52:17.402Z,23.90
2023-10-10T07:54:47.756Z,24.30
2023-10-10T07:57:19.321Z,25.30
2023-10-10T07:59:47.606Z,25.90
2023-10-10T08:02:27.089Z,26.30
2023-10-10T08:04:55.716Z,26.80
2023-10-10T08:07:24.778Z,27.40
2023-10-10T08:10:12.984Z,27.60
2023-10-10T08:12:41.295Z,27.40
2023-10-10T08:15:20.304Z,27.10
2023-10-10T08:17:55.102Z,27.10
2023-10-10T08:20:37.672Z,27.10
2023-10-10T08:23:06.465Z,26.50
2023-10-10T08:25:34.425Z,27.10
2023-10-10T08:28:02.650Z,27.60
2023-10-10T08:30:30.462Z,28.40
2023-10-10T08:33:00.400Z,28.90
2023-10-10T08:35:31.387Z,29.20
2023-10-10T08:37:59.676Z,29.60
2023-10-10T08:40:35.743Z,30.10
2023-10-10T08:43:05.509Z,30.60
2023-10-10T08:45:40.653Z,30.80
2023-10-10T08:48:13.735Z,31.00
2023-10-10T08:50:42.703Z,30.90
2023-10-10T08:53:13.524Z,30.60
2023-10-10T08:55:42.586Z,30.30
2023-10-10T08:58:11.513Z,30.30
2023-10-10T09:00:39.507Z,30.40
2023-10-10T09:03:09.136Z,30.60
2023-10-10T09:05:39.057Z,30.70
2023-10-10T09:08:15.353Z,30.20
2023-10-10T09:10:45.239Z,29.70
2023-10-10T09:13:12.984Z,29.70
2023-10-10T09:15:55.128Z,30.10
2023-10-10T09:18:24.357Z,30.40
2023-10-10T09:20:54.881Z,30.70
2023-10-10T09:23:24.739Z,31.00
2023-10-10T09:26:10.616Z,31.30
2023-10-10T09:28:46.096Z,31.70
2023-10-10T09:31:21.334Z,32.20
2023-10-10T09:33:55.275Z,32.50
2023-10-10T09:36:27.918Z,32.80
2023-10-10T09:39:09.596Z,32.90
2023-10-10T09:41:58.612Z,32.90
2023-10-10T09:44:50.032Z,32.90
2023-10-10T09:47:37.748Z,32.80
2023-10-10T09:50:22.411Z,32.80
2023-10-10T09:52:54.838Z,32.70
2023-10-10T09:55:40.258Z,32.40
2023-10-10T09:58:25.172Z,32.30
2023-10-10T10:00:53.588Z,32.10
2023-10-10T10:03:33.109Z,32.20
2023-10-10T10:06:27.153Z,32.50
2023-10-10T10:09:17.383Z,32.70
2023-10-10T10:11:57.506Z,33.10
2023-10-10T10:14:36.620Z,33.50
2023-10-10T10:17:14.926Z,33.80
2023-10-10T10:19:48.595Z,33.70
2023-10-10T10:22:18.459Z,34.40
2023-10-10T10:25:22.972Z,34.90
2023-10-10T10:27:51.420Z,35.20
2023-10-10T10:30:33.546Z,34.90
2023-10-10T10:33:01.557Z,34.20
2023-10-10T10:36:18.662Z,34.50
2023-10-10T10:39:00.729Z,34.80
2023-10-10T10:41:44.088Z,35.00
2023-10-10T10:44:14.512Z,35.10
2023-10-10T10:46:49.106Z,34.60
2023-10-10T10:49:23.096Z,34.50
2023-10-10T10:52:08.584Z,34.60
2023-10-10T10:54:37.549Z,34.90
2023-10-10T10:57:07.322Z,34.90
2023-10-10T10:59:40.442Z,34.80
2023-10-10T11:02:16.625Z,34.80
2023-10-10T11:04:51.284Z,34.90
2023-10-10T11:07:33.625Z,35.10
2023-10-10T11:10:09.961Z,35.00
2023-10-10T11:12:39.235Z,34.90
2023-10-10T11:15:11.409Z,35.00
2023-10-10T11:17:41.381Z,34.60
2023-10-10T11:20:25.303Z,34.30
2023-10-10T11:22:55.834Z,34.20
2023-10-10T11:25:40.081Z,34.10
2023-10-10T11:28:22.899Z,34.00
2023-10-10T11:30:52.770Z,34.30
2023-10-10T11:33:50.161Z,34.30
2023-10-10T11:36:30.242Z,33.80
2023-10-10T11:39:17.190Z,34.00
2023-10-10T11:41:47.550Z,33.80
2023-10-10T11:44:21.770Z,33.20
2023-10-10T11:46:50.862Z,32.10
2023-10-10T11:49:18.987Z,31.30
2023-10-10T11:51:47.949Z,31.00
2023-10-10T11:54:26.140Z,30.40
2023-10-10T11:56:54.159Z,30.00
2023-10-10T11:59:24.725Z,29.80
2023-10-10T12:01:55.704Z,29.40
2023-10-10T12:04:32.258Z,29.10
2023-10-10T12:07:04.473Z,28.90
2023-10-10T12:09:34.724Z,28.80
2023-10-10T12:12:04.784Z,28.70
2023-10-10T12:14:34.261Z,28.70
2023-10-10T12:17:06.639Z,28.80
2023-10-10T12:19:38.335Z,28.90
2023-10-10T12:22:11.582Z,28.90
2023-10-10T12:24:40.488Z,28.80
2023-10-10T12:27:09.124Z,28.40
2023-10-10T12:29:41.474Z,28.40
2023-10-10T12:32:17.423Z,28.50
2023-10-10T12:34:46.683Z,28.40
2023-10-10T12:37:16.542Z,28.30
2023-10-10T12:39:45.002Z,28.00
2023-10-10T12:42:13.518Z,28.20
2023-10-10T12:44:48.747Z,28.00
2023-10-10T12:47:18.561Z,27.70
2023-10-10T12:49:46.551Z,27.40
2023-10-10T12:52:18.012Z,27.40
2023-10-10T12:54:47.670Z,27.40
2023-10-10T12:57:15.952Z,27.20
2023-10-10T12:59:47.311Z,27.10
2023-10-10T13:02:17.630Z,27.00
2023-10-10T13:04:48.536Z,27.10
2023-10-10T13:07:17.810Z,27.00
2023-10-10T13:09:47.516Z,27.00
2023-10-10T13:12:28.870Z,27.00
2023-10-10T13:15:17.529Z,27.10
2023-10-10T13:17:54.310Z,27.30
2023-10-10T13:20:23.412Z,27.30
2023-10-10T13:22:52.365Z,27.20
2023-10-10T13:25:21.271Z,27.00
2023-10-10T13:27:53.126Z,27.10
2023-10-10T13:30:22.289Z,27.10
2023-10-10T13:32:50.574Z,27.10
2023-10-10T13:35:20.892Z,27.00
2023-10-10T13:37:48.654Z,27.00
2023-10-10T13:40:23.105Z,27.00
2023-10-10T13:42:50.964Z,27.10
2023-10-10T13:45:20.576Z,26.90
2023-10-10T13:47:50.172Z,26.90
2023-10-10T13:50:32.048Z,26.90
2023-10-10T13:53:00.783Z,26.80
2023-10-10T13:55:31.191Z,26.70
2023-10-10T13:57:58.911Z,26.60
2023-10-10T14:00:34.723Z,26.50
2023-10-10T14:03:05.713Z,26.30
2023-10-10T14:05:35.757Z,26.30
2023-10-10T14:08:05.001Z,26.30
2023-10-10T14:10:40.838Z,26.30
2023-10-10T14:13:23.292Z,26.10
2023-10-10T14:15:59.897Z,26.10
2023-10-10T14:18:31.228Z,26.10
2023-10-10T14:21:08.731Z,26.10
2023-10-10T14:23:37.052Z,26.10
2023-10-10T14:26:13.682Z,26.00
2023-10-10T14:28:42.282Z,25.90
2023-10-10T14:31:13.479Z,25.70
2023-10-10T14:33:42.936Z,25.60
2023-10-10T14:36:18.177Z,25.60
2023-10-10T14:38:46.775Z,25.50
2023-10-10T14:41:17.995Z,25.50
2023-10-10T14:43:48.715Z,25.40
2023-10-10T14:46:22.338Z,25.40
2023-10-10T14:49:01.694Z,25.30
2023-10-10T14:51:34.607Z,25.40
2023-10-10T14:54:07.825Z,25.40
2023-10-10T14:56:36.962Z,25.30
2023-10-10T14:59:06.962Z,25.30
2023-10-10T15:01:36.988Z,25.30
2023-10-10T15:04:09.894Z,25.30
2023-10-10T15:06:40.754Z,25.20
2023-10-10T15:09:13.973Z,25.10
2023-10-10T15:11:46.820Z,25.20
2023-10-10T15:14:15.256Z,25.10
2023-10-10T15:16:47.309Z,25.10
2023-10-10T15:19:16.790Z,25.10
2023-10-10T15:21:49.240Z,25.10
2023-10-10T15:24:17.043Z,25.10
2023-10-10T15:26:46.848Z,25.10
2023-10-10T15:29:15.502Z,25.10
2023-10-10T15:31:43.594Z,25.00
2023-10-10T15:34:12.818Z,24.70
2023-10-10T15:36:44.918Z,24.40
2023-10-10T15:39:13.610Z,24.10
2023-10-10T15:41:43.631Z,23.70
2023-10-10T15:44:13.240Z,23.40
2023-10-10T15:46:43.828Z,23.10
2023-10-10T15:51:45.786Z,22.30
2023-10-10T15:54:15.597Z,22.10
2023-10-10T15:56:44.358Z,21.80
2023-10-10T15:59:16.130Z,21.60
2023-10-10T16:01:47.885Z,21.50
2023-10-10T16:04:17.882Z,21.40
2023-10-10T16:06:48.229Z,21.40
2023-10-10T16:09:21.153Z,21.20
2023-10-10T16:11:53.640Z,21.10
2023-10-10T16:14:22.617Z,21.10
2023-10-10T16:16:50.860Z,21.00
2023-10-10T16:19:22.018Z,21.00
2023-10-10T16:21:52.272Z,21.00
2023-10-10T16:24:20.180Z,20.80
2023-10-10T16:26:49.979Z,20.70
2023-10-10T16:29:20.585Z,20.60
2023-10-10T16:31:49.634Z,20.50
2023-10-10T16:34:18.062Z,20.40
2023-10-10T16:36:47.283Z,20.20
2023-10-10T16:39:16.631Z,20.10
2023-10-10T16:41:44.751Z,20.00
2023-10-10T16:44:15.411Z,19.90
2023-10-10T16:46:43.420Z,19.80
2023-10-10T16:49:11.325Z,19.70
2023-10-10T16:51:39.084Z,19.60
2023-10-10T16:54:07.543Z,19.50
2023-10-10T16:56:36.910Z,19.40
2023-10-10T16:59:05.616Z,19.30
2023-10-10T17:01:33.779Z,19.30
2023-10-10T17:04:02.103Z,19.30
2023-10-10T17:06:32.496Z,19.20
2023-10-10T17:09:00.609Z,19.10
2023-10-10T17:11:28.735Z,18.90
2023-10-10T17:14:00.436Z,18.80
2023-10-10T17:16:30.238Z,18.80
2023-10-10T17:19:22.642Z,18.70
2023-10-10T17:21:48.223Z,18.60
2023-10-10T17:24:19.671Z,18.50
2023-10-10T17:26:47.573Z,18.50
2023-10-10T17:29:17.116Z,18.50
2023-10-10T17:31:45.233Z,18.40
2023-10-10T17:34:16.547Z,18.30
2023-10-10T17:36:45.204Z,18.30
2023-10-10T17:39:16.602Z,18.30
2023-10-10T17:41:48.189Z,18.20
2023-10-10T17:44:18.874Z,18.20
2023-10-10T17:46:48.487Z,18.30
2023-10-10T17:49:16.769Z,18.40
2023-10-10T17:51:45.616Z,18.30
2023-10-10T17:54:16.544Z,18.30
2023-10-10T17:56:45.578Z,18.30
2023-10-10T17:59:13.543Z,18.30
2023-10-10T18:01:44.644Z,18.30
2023-10-10T18:04:14.450Z,18.20
2023-10-10T18:06:42.401Z,18.20
2023-10-10T18:09:10.322Z,18.20
2023-10-10T18:11:38.752Z,18.20
2023-10-10T18:14:08.060Z,18.20
2023-10-10T18:16:36.799Z,18.20
2023-10-10T18:19:07.166Z,18.20
2023-10-10T18:21:35.054Z,18.20
2023-10-10T18:24:08.071Z,18.10
2023-10-10T18:26:38.617Z,18.10
2023-10-10T18:29:06.718Z,18.20
2023-10-10T18:31:35.659Z,18.20
2023-10-10T18:34:06.045Z,18.20
2023-10-10T18:36:37.478Z,18.30
2023-10-10T18:39:12.746Z,18.20
2023-10-10T18:41:42.346Z,18.20
2023-10-10T18:44:11.110Z,18.20
2023-10-10T18:46:39.005Z,18.00
2023-10-10T18:49:10.515Z,18.00
2023-10-10T18:51:39.415Z,18.00
2023-10-10T18:54:09.440Z,18.00
2023-10-10T18:56:38.813Z,18.00
2023-10-10T18:59:06.757Z,18.00
2023-10-10T19:01:38.363Z,18.00
2023-10-10T19:04:09.396Z,18.00
2023-10-10T19:06:39.723Z,18.00
2023-10-10T19:09:12.183Z,17.90
2023-10-10T19:11:40.443Z,17.80
2023-10-10T19:14:10.457Z,17.70
2023-10-10T19:16:38.355Z,17.60
2023-10-10T19:19:06.328Z,17.50
2023-10-10T19:21:35.663Z,17.30
2023-10-10T19:24:03.670Z,17.20
2023-10-10T19:26:31.827Z,17.10
2023-10-10T19:28:59.811Z,17.10
2023-10-10T19:31:27.797Z,17.10
2023-10-10T19:33:55.886Z,17.10
2023-10-10T19:36:23.835Z,17.00
2023-10-10T19:38:54.508Z,16.90
2023-10-10T19:41:22.285Z,16.90
2023-10-10T19:43:52.236Z,16.80
2023-10-10T19:48:51.708Z,16.60
2023-10-10T19:51:20.964Z,16.60
2023-10-10T19:53:50.779Z,16.50
2023-10-10T19:56:22.101Z,16.40
2023-10-10T19:58:50.294Z,16.30
2023-10-10T20:01:18.241Z,16.30
2023-10-10T20:03:46.932Z,16.30
2023-10-10T20:06:16.431Z,16.30
2023-10-10T20:08:44.289Z,16.30
2023-10-10T20:11:13.177Z,16.20
2023-10-10T20:13:42.324Z,16.10
2023-10-10T20:16:15.546Z,16.00
2023-10-10T20:18:45.094Z,15.90
2023-10-10T20:21:14.025Z,16.00
2023-10-10T20:23:43.017Z,15.90
2023-10-10T20:26:15.900Z,15.90
2023-10-10T20:28:47.529Z,15.90
2023-10-10T20:31:17.653Z,15.90
2023-10-10T20:33:45.904Z,15.80
2023-10-10T20:36:14.461Z,15.80
2023-10-10T20:38:43.914Z,15.70
2023-10-10T20:41:12.927Z,15.60
2023-10-10T20:43:41.894Z,15.60
2023-10-10T20:46:12.825Z,15.60
2023-10-10T20:48:40.689Z,15.60
2023-10-10T20:51:13.440Z,15.60
2023-10-10T20:53:42.983Z,15.60
2023-10-10T20:56:10.868Z,15.50
2023-10-10T20:58:39.173Z,15.50
2023-10-10T21:01:10.554Z,15.40
2023-10-10T21:03:40.075Z,15.40
2023-10-10T21:06:08.107Z,15.40
2023-10-10T21:08:35.958Z,15.30
2023-10-10T21:11:09.694Z,15.30
2023-10-10T21:13:37.420Z,15.30
2023-10-10T21:16:15.049Z,15.50
2023-10-10T21:18:46.054Z,15.60
2023-10-10T21:21:14.045Z,15.60
2023-10-10T21:23:42.203Z,15.70
2023-10-10T21:26:14.691Z,15.80
2023-10-10T21:28:42.638Z,15.70
2023-10-10T21:31:10.872Z,15.70
2023-10-10T21:33:41.302Z,15.60
2023-10-10T21:36:12.384Z,15.50
2023-10-10T21:38:40.366Z,15.50
2023-10-10T21:41:10.335Z,15.60
2023-10-10T21:43:38.216Z,15.50
2023-10-10T21:46:06.586Z,15.50
2023-10-10T21:48:34.516Z,15.50
2023-10-10T21:51:05.382Z,15.40
2023-10-10T21:53:38.399Z,15.50
2023-10-10T21:56:07.403Z,15.50
2023-10-10T21:58:35.172Z,15.40
2023-10-10T22:01:04.170Z,15.50
2023-10-10T22:03:32.565Z,15.50
2023-10-10T22:06:01.192Z,15.50
2023-10-10T22:08:28.939Z,15.40
2023-10-10T22:11:03.251Z,15.50
2023-10-10T22:13:31.430Z,15.50
2023-10-10T22:15:59.224Z,15.40
2023-10-10T22:18:27.089Z,15.50
2023-10-10T22:20:57.017Z,15.60
2023-10-10T22:23:27.362Z,15.70
2023-10-10T22:26:01.013Z,15.80
2023-10-10T22:28:29.829Z,15.80
2023-10-10T22:31:00.065Z,15.90
2023-10-10T22:33:27.981Z,15.80
2023-10-10T22:35:55.816Z,15.80
2023-10-10T22:38:24.353Z,15.70
2023-10-10T22:40:52.073Z,15.60
2023-10-10T22:43:22.321Z,15.50
2023-10-10T22:45:50.264Z,15.40
2023-10-10T22:48:18.123Z,15.40
2023-10-10T22:50:46.730Z,15.40
2023-10-10T22:53:16.302Z,15.40
2023-10-10T22:55:45.506Z,15.30
2023-10-10T22:58:16.085Z,15.30
2023-10-10T23:00:48.534Z,15.40
2023-10-10T23:03:19.931Z,15.40
2023-10-10T23:05:48.315Z,15.40
2023-10-10T23:08:16.827Z,15.40
2023-10-10T23:10:47.254Z,15.40
2023-10-10T23:13:16.497Z,15.50
2023-10-10T23:15:50.105Z,15.40
2023-10-10T23:18:18.587Z,15.40
2023-10-10T23:20:47.066Z,15.40
2023-10-10T23:23:16.896Z,15.40
2023-10-10T23:25:44.684Z,15.40
2023-10-10T23:28:12.507Z,15.40
2023-10-10T23:30:43.023Z,15.40
2023-10-10T23:33:14.072Z,15.40
2023-10-10T23:35:42.884Z,15.40
2023-10-10T23:38:11.458Z,15.40
2023-10-10T23:40:41.948Z,15.40
2023-10-10T23:43:11.983Z,15.50
2023-10-10T23:45:43.070Z,15.50
2023-10-10T23:48:16.501Z,15.50
2023-10-10T23:50:45.591Z,15.50
2023-10-10T23:53:14.806Z,15.50
2023-10-10T23:55:47.481Z,15.50
2023-10-10T23:58:15.785Z,15.50
